^^
MeteoGriva-Weather Station Historical Data
Daily Summary for October 26, 2020 Units:  Metric    English   Both
Daily Weekly Monthly Yearly Custom
  High: Low: Average:
Temperature: 21.3 °C 11.2 °C 15.9 °C
Dew Point: 14.5 °C 8.6 °C 11.8 °C
Humidity: 99% 61.4% 78%
Wind Speed: 6.7km/h 0km/h 0.3km/h
Wind Gust: 20.1km/h - -
Wind- - SSE
Pressure: 1012.5 hPa 1009.8 hPa -
Precipitation: 0.0 mm    
Historical Graphs
 
 
Tabular Data for October 26, 2020
Time Temperature Dew Point Pressure Wind Wind Speed Wind Gust Humidity Rainfall Rate (Hourly) solar
00:04 12.2 °C 12 °C 1011.2 hPa Calm     98.8% 0.0 mm 0 W/m2
00:09 12.2 °C 11.9 °C 1011.2 hPa Calm     99% 0.0 mm 0 W/m2
00:14 12.1 °C 11.8 °C 1011.2 hPa Calm     99% 0.0 mm 0 W/m2
00:19 11.9 °C 11.7 °C 1011.2 hPa Calm     99% 0.0 mm 0 W/m2
00:24 11.8 °C 11.6 °C 1011.2 hPa Calm     99% 0.0 mm 0 W/m2
00:29 11.8 °C 11.6 °C 1010.8 hPa Calm     99% 0.0 mm 0 W/m2
00:34 11.7 °C 11.5 °C 1010.8 hPa Calm     99% 0.0 mm 0 W/m2
00:39 11.5 °C 11.3 °C 1010.8 hPa Calm     99% 0.0 mm 0 W/m2
00:44 11.2 °C 11 °C 1010.8 hPa Calm     99% 0.0 mm 0 W/m2
00:49 11.2 °C 11 °C 1010.8 hPa Calm     99% 0.0 mm 0 W/m2
00:54 11.2 °C 11 °C 1010.8 hPa Calm     99% 0.0 mm 0 W/m2
00:59 11.6 °C 11.3 °C 1010.8 hPa Calm     98.4% 0.0 mm 0 W/m2
01:04 11.8 °C 11.5 °C 1011.2 hPa Calm     97.8% 0.0 mm 0 W/m2
01:09 11.8 °C 11.3 °C 1010.8 hPa Calm     96.8% 0.0 mm 0 W/m2
01:14 11.8 °C 11.4 °C 1010.8 hPa Calm     97.7% 0.0 mm 0 W/m2
01:19 12 °C 11.4 °C 1010.8 hPa Calm     96.3% 0.0 mm 0 W/m2
01:24 12.1 °C 11.4 °C 1010.8 hPa Calm     95.3% 0.0 mm 0 W/m2
01:29 12.1 °C 11.3 °C 1010.8 hPa Calm     95.1% 0.0 mm 0 W/m2
01:34 12.2 °C 11.3 °C 1010.8 hPa Calm     95% 0.0 mm 0 W/m2
01:39 12.2 °C 11.5 °C 1010.8 hPa Calm     95.1% 0.0 mm 0 W/m2
01:44 12.2 °C 11.3 °C 1010.8 hPa Calm     94.1% 0.0 mm 0 W/m2
01:49 12.2 °C 11.3 °C 1010.8 hPa Calm     94.1% 0.0 mm 0 W/m2
01:54 12.2 °C 11 °C 1010.8 hPa Calm     92.1% 0.0 mm 0 W/m2
01:59 12.3 °C 11 °C 1010.8 hPa Calm     91.7% 0.0 mm 0 W/m2
02:04 12.3 °C 11.8 °C 1010.8 hPa Calm     96.9% 0.0 mm 0 W/m2
02:09 12.1 °C 10.9 °C 1010.8 hPa Calm     92.4% 0.0 mm 0 W/m2
02:14 12.1 °C 10.4 °C 1010.8 hPa Calm     89.3% 0.0 mm 0 W/m2
02:19 12 °C 10.5 °C 1010.8 hPa Calm     90.2% 0.0 mm 0 W/m2
02:24 11.9 °C 9.9 °C 1010.8 hPa Calm     87.6% 0.0 mm 0 W/m2
02:29 11.9 °C 10 °C 1010.8 hPa Calm     88.4% 0.0 mm 0 W/m2
02:34 12 °C 10 °C 1010.8 hPa Calm     87.7% 0.0 mm 0 W/m2
02:39 12.1 °C 10.1 °C 1010.8 hPa Calm     87.7% 0.0 mm 0 W/m2
02:44 12.1 °C 10.3 °C 1010.8 hPa Calm     89% 0.0 mm 0 W/m2
02:49 12 °C 10.3 °C 1010.8 hPa Calm     89.9% 0.0 mm 0 W/m2
02:54 11.9 °C 9.9 °C 1010.8 hPa Calm     87.7% 0.0 mm 0 W/m2
02:59 11.6 °C 10.1 °C 1010.8 hPa Calm     90.3% 0.0 mm 0 W/m2
03:04 11.3 °C 9.7 °C 1010.8 hPa Calm     90% 0.0 mm 0 W/m2
03:09 11.3 °C 9.6 °C 1010.8 hPa Calm     89% 0.0 mm 0 W/m2
03:14 11.4 °C 9.6 °C 1010.8 hPa Calm     88.4% 0.0 mm 0 W/m2
03:19 11.7 °C 9.5 °C 1010.8 hPa Calm     86.9% 0.0 mm 0 W/m2
03:24 11.9 °C 9.7 °C 1010.8 hPa Calm     86.7% 0.0 mm 0 W/m2
03:29 11.8 °C 9.9 °C 1010.8 hPa Calm     87.7% 0.0 mm 0 W/m2
03:34 11.8 °C 9.9 °C 1010.8 hPa Calm     88.3% 0.0 mm 0 W/m2
03:39 11.6 °C 9.9 °C 1010.8 hPa Calm     88.9% 0.0 mm 0 W/m2
03:44 11.4 °C 9.2 °C 1010.8 hPa Calm     86.8% 0.0 mm 0 W/m2
03:49 11.5 °C 9 °C 1010.8 hPa Calm     84.4% 0.0 mm 0 W/m2
03:54 11.7 °C 8.6 °C 1010.8 hPa Calm     81.7% 0.0 mm 0 W/m2
03:59 12.5 °C 8.8 °C 1010.8 hPa Calm     78.4% 0.0 mm 0 W/m2
04:04 13.5 °C 10.2 °C 1010.8 hPa Calm     80.6% 0.0 mm 0 W/m2
04:09 13.3 °C 10.7 °C 1010.8 hPa Calm     83.9% 0.0 mm 0 W/m2
04:14 13.2 °C 10.1 °C 1010.8 hPa Calm     81.6% 0.0 mm 0 W/m2
04:19 13.1 °C 9.7 °C 1010.8 hPa Calm     79.9% 0.0 mm 0 W/m2
04:24 13.2 °C 9.9 °C 1010.8 hPa Calm     80.6% 0.0 mm 0 W/m2
04:29 13.1 °C 10.3 °C 1010.8 hPa Calm     82.8% 0.0 mm 0 W/m2
04:34 12.9 °C 10.3 °C 1010.8 hPa Calm     83.8% 0.0 mm 0 W/m2
04:39 12.8 °C 9.8 °C 1011.2 hPa Calm     82% 0.0 mm 0 W/m2
04:44 12.8 °C 9.7 °C 1010.8 hPa Calm     81.2% 0.0 mm 0 W/m2
04:49 12.8 °C 10.1 °C 1011.2 hPa Calm     83.9% 0.0 mm 0 W/m2
04:54 12.7 °C 10.1 °C 1011.2 hPa Calm     84.2% 0.0 mm 0 W/m2
04:59 12.5 °C 10 °C 1011.2 hPa Calm     85.1% 0.0 mm 0 W/m2
05:04 12.2 °C 9.9 °C 1011.2 hPa Calm     85.4% 0.0 mm 0 W/m2
05:09 12.3 °C 9.9 °C 1011.2 hPa Calm     85.4% 0.0 mm 0 W/m2
05:14 12.3 °C 10 °C 1011.2 hPa Calm     85.6% 0.0 mm 0 W/m2
05:19 12.3 °C 9.8 °C 1011.2 hPa Calm     84.6% 0.0 mm 0 W/m2
05:24 12.3 °C 9.7 °C 1011.2 hPa Calm     83.7% 0.0 mm 0 W/m2
05:29 12.4 °C 9.8 °C 1011.2 hPa Calm     84% 0.0 mm 0 W/m2
05:34 12.4 °C 9.7 °C 1011.2 hPa Calm     83.7% 0.0 mm 0 W/m2
05:39 12.3 °C 9.7 °C 1011.5 hPa Calm     83.9% 0.0 mm 0 W/m2
05:44 11.9 °C 9.6 °C 1011.5 hPa Calm     85.8% 0.0 mm 0 W/m2
05:49 12 °C 9.6 °C 1011.5 hPa Calm     85.3% 0.0 mm 0 W/m2
05:54 12 °C 9.5 °C 1011.5 hPa Calm     84.6% 0.0 mm 0 W/m2
05:59 12.1 °C 9.3 °C 1011.5 hPa Calm     83.3% 0.0 mm 0 W/m2
06:04 12.2 °C 9.4 °C 1011.2 hPa Calm     83% 0.0 mm 0 W/m2
06:09 12.3 °C 9 °C 1011.5 hPa Calm     80.1% 0.0 mm 0 W/m2
06:14 12.5 °C 8.7 °C 1011.2 hPa Calm     77.3% 0.0 mm 0 W/m2
06:19 12.7 °C 8.9 °C 1011.2 hPa Calm     77.6% 0.0 mm 0 W/m2
06:24 13.7 °C 9.7 °C 1011.2 hPa Calm     77% 0.0 mm 0 W/m2
06:29 13.7 °C 9.5 °C 1011.5 hPa Calm     76.2% 0.0 mm 0 W/m2
06:34 13.7 °C 9.7 °C 1011.2 hPa Calm     77% 0.0 mm 0 W/m2
06:39 13.7 °C 9.8 °C 1011.2 hPa Calm     77.3% 0.0 mm 0 W/m2
06:44 13.4 °C 10.2 °C 1011.5 hPa Calm     80.9% 0.0 mm 0 W/m2
06:49 13.3 °C 10.6 °C 1011.5 hPa Calm     83.4% 0.0 mm 0 W/m2
06:54 13.2 °C 10.5 °C 1011.5 hPa Calm     84% 0.0 mm 0 W/m2
06:59 13 °C 10.3 °C 1011.5 hPa Calm     83.8% 0.0 mm 4 W/m2
07:04 12.5 °C 9.9 °C 1011.9 hPa Calm     84% 0.0 mm 10 W/m2
07:09 12.5 °C 9.9 °C 1011.9 hPa Calm     84% 0.0 mm 17 W/m2
07:14 12.6 °C 9.7 °C 1011.9 hPa Calm     82.7% 0.0 mm 23 W/m2
07:19 12.7 °C 9.8 °C 1011.9 hPa Calm     82.7% 0.0 mm 29 W/m2
07:24 13.3 °C 10.3 °C 1011.9 hPa Calm     82% 0.0 mm 35 W/m2
07:29 13.4 °C 10.4 °C 1011.9 hPa Calm     82% 0.0 mm 40 W/m2
07:34 13.4 °C 10.6 °C 1012.2 hPa Calm     82.8% 0.0 mm 44 W/m2
07:39 13.5 °C 10.3 °C 1012.2 hPa Calm     81.1% 0.0 mm 49 W/m2
07:44 14.1 °C 11 °C 1012.2 hPa Calm     81.2% 0.0 mm 54 W/m2
07:49 14.2 °C 11.1 °C 1012.5 hPa Calm     81.8% 0.0 mm 58 W/m2
07:54 14.2 °C 10.7 °C 1012.5 hPa Calm     79.8% 0.0 mm 63 W/m2
07:59 14.4 °C 10.2 °C 1012.5 hPa Calm     76.1% 0.0 mm 70 W/m2
08:04 17.4 °C 12.3 °C 1012.5 hPa Calm     72.2% 0.0 mm 71 W/m2
08:09 17.7 °C 12.3 °C 1012.5 hPa Calm     70.4% 0.0 mm 76 W/m2
08:14 17.8 °C 12.5 °C 1012.5 hPa Calm     71.2% 0.0 mm 80 W/m2
08:19 17.9 °C 13.3 °C 1012.5 hPa Calm     74.3% 0.0 mm 83 W/m2
08:24 18.1 °C 13.1 °C 1012.5 hPa Calm     72.4% 0.0 mm 84 W/m2
08:29 18.2 °C 12.4 °C 1012.5 hPa Calm     69.2% 0.0 mm 86 W/m2
08:34 18.2 °C 12.1 °C 1012.5 hPa Calm     67.4% 0.0 mm 87 W/m2
08:39 18.3 °C 12.3 °C 1012.5 hPa Calm     68.1% 0.0 mm 88 W/m2
08:44 18.7 °C 12.9 °C 1012.5 hPa Calm     68.7% 0.0 mm 90 W/m2
08:49 18.8 °C 12.6 °C 1012.5 hPa Calm     67.2% 0.0 mm 93 W/m2
08:54 18.9 °C 12.6 °C 1012.2 hPa Calm     66.8% 0.0 mm 94 W/m2
08:59 19 °C 12.4 °C 1012.5 hPa Calm     65.9% 0.0 mm 95 W/m2
09:04 18.3 °C 12.2 °C 1012.2 hPa Calm     67.4% 0.0 mm 96 W/m2
09:09 18.1 °C 11.8 °C 1012.2 hPa Calm     66.8% 0.0 mm 97 W/m2
09:14 18.2 °C 12.2 °C 1012.2 hPa Calm     68.3% 0.0 mm 97 W/m2
09:19 18.2 °C 12.6 °C 1012.2 hPa Calm     70.1% 0.0 mm 97 W/m2
09:24 18.3 °C 12.5 °C 1012.5 hPa Calm     69.1% 0.0 mm 98 W/m2
09:29 18.3 °C 12.2 °C 1012.2 hPa Calm     67.6% 0.0 mm 100 W/m2
09:34 18.4 °C 12.4 °C 1012.2 hPa Calm     67.9% 0.0 mm 103 W/m2
09:39 18.5 °C 12.8 °C 1012.2 hPa Calm     69.8% 0.0 mm 105 W/m2
09:44 18.9 °C 13.2 °C 1012.2 hPa Calm     69.6% 0.0 mm 110 W/m2
09:49 18.9 °C 13.6 °C 1012.2 hPa Calm     71.6% 0.0 mm 113 W/m2
09:54 18.9 °C 13.7 °C 1012.2 hPa Calm     71.8% 0.0 mm 118 W/m2
09:59 18.9 °C 13.7 °C 1012.2 hPa Calm   4 km/h 71.7% 0.0 mm 121 W/m2
10:04 19.2 °C 13.7 °C 1012.5 hPa Calm     70.2% 0.0 mm 126 W/m2
10:09 19.5 °C 14 °C 1012.2 hPa SE 0.4 km/h 7.9 km/h 70.6% 0.0 mm 130 W/m2
10:14 19.4 °C 14.1 °C 1012.2 hPa ESE 0.4 km/h 7.9 km/h 71.5% 0.0 mm 137 W/m2
10:19 19.3 °C 14.3 °C 1012.2 hPa ESE 0.7 km/h 7.9 km/h 72.6% 0.0 mm 142 W/m2
10:24 18.9 °C 13.9 °C 1012.2 hPa South 1 km/h 7.9 km/h 72.8% 0.0 mm 148 W/m2
10:29 18.7 °C 13.3 °C 1012.2 hPa SE 0.6 km/h 7.9 km/h 70.8% 0.0 mm 155 W/m2
10:34 18.8 °C 13.2 °C 1012.2 hPa ESE 0.9 km/h 12.2 km/h 69.9% 0.0 mm 160 W/m2
10:39 18.8 °C 13.5 °C 1012.2 hPa East 0.6 km/h 12.2 km/h 71.7% 0.0 mm 167 W/m2
10:44 18.8 °C 13.5 °C 1012.2 hPa Calm   4 km/h 71.7% 0.0 mm 170 W/m2
10:49 18.8 °C 13.3 °C 1012.2 hPa East 0.1 km/h 4 km/h 70.4% 0.0 mm 177 W/m2
10:54 18.9 °C 13.4 °C 1012.2 hPa ENE 0.1 km/h 7.9 km/h 70.4% 0.0 mm 183 W/m2
10:59 18.9 °C 13.2 °C 1012.2 hPa ESE 0.1 km/h 4 km/h 69.8% 0.0 mm 190 W/m2
11:04 19 °C 13.6 °C 1011.9 hPa SE 3.2 km/h 7.9 km/h 71.3% 0.0 mm 197 W/m2
11:09 18.9 °C 13.4 °C 1011.9 hPa Calm   4 km/h 70.6% 0.0 mm 205 W/m2
11:14 19 °C 13.5 °C 1011.9 hPa Calm     70.6% 0.0 mm 214 W/m2
11:19 19 °C 13.5 °C 1011.9 hPa SSE 0.2 km/h 7.9 km/h 70.2% 0.0 mm 223 W/m2
11:24 19.4 °C 13.7 °C 1011.9 hPa Calm     69.6% 0.0 mm 232 W/m2
11:29 19.6 °C 14 °C 1011.9 hPa Calm     69.8% 0.0 mm 242 W/m2
11:34 19.7 °C 13.9 °C 1011.9 hPa Calm     69.1% 0.0 mm 253 W/m2
11:39 19.7 °C 14.1 °C 1011.9 hPa SSW 0.4 km/h 4 km/h 69.8% 0.0 mm 255 W/m2
11:44 19.6 °C 14 °C 1011.9 hPa Calm   4 km/h 70.1% 0.0 mm 266 W/m2
11:49 19.5 °C 13.9 °C 1011.9 hPa SSE 1.2 km/h 12.2 km/h 70% 0.0 mm 270 W/m2
11:54 19.5 °C 13.8 °C 1011.9 hPa Calm   4 km/h 69.5% 0.0 mm 285 W/m2
11:59 19.5 °C 13.7 °C 1011.9 hPa South 1.2 km/h 7.9 km/h 69.1% 0.0 mm 299 W/m2
12:04 19.7 °C 13.7 °C 1011.5 hPa SE 0.5 km/h 7.9 km/h 68.4% 0.0 mm 304 W/m2
12:09 19.7 °C 13.7 °C 1011.5 hPa SSW 0.3 km/h 7.9 km/h 68.2% 0.0 mm 317 W/m2
12:14 19.7 °C 13.6 °C 1011.5 hPa SSE 0.6 km/h 7.9 km/h 67.9% 0.0 mm 330 W/m2
12:19 19.7 °C 13.4 °C 1011.5 hPa SSE 0.4 km/h 7.9 km/h 66.9% 0.0 mm 338 W/m2
12:24 19.9 °C 13.5 °C 1011.2 hPa SSE 1.2 km/h 12.2 km/h 66.7% 0.0 mm 349 W/m2
12:29 20 °C 13.6 °C 1011.2 hPa ESE 0.5 km/h 12.2 km/h 66.6% 0.0 mm 358 W/m2
12:34 20 °C 13.6 °C 1011.2 hPa SSE 0.3 km/h 7.9 km/h 66.3% 0.0 mm 372 W/m2
12:39 20.1 °C 13.5 °C 1010.8 hPa South 1.2 km/h 12.2 km/h 66.1% 0.0 mm 382 W/m2
12:44 20.3 °C 13.7 °C 1010.8 hPa SSE 2 km/h 12.2 km/h 65.8% 0.0 mm 388 W/m2
12:49 20.6 °C 14 °C 1010.8 hPa SSE 5.2 km/h 12.2 km/h 66.1% 0.0 mm 392 W/m2
12:54 20.6 °C 14.3 °C 1010.8 hPa SSE 1.4 km/h 7.9 km/h 67.3% 0.0 mm 392 W/m2
12:59 20.6 °C 14.2 °C 1010.8 hPa South 5.2 km/h 12.2 km/h 66.6% 0.0 mm 388 W/m2
13:04 20.6 °C 14.1 °C 1010.8 hPa SSE 3.5 km/h 12.2 km/h 66.6% 0.0 mm 386 W/m2
13:09 20.4 °C 14.4 °C 1010.8 hPa South 3 km/h 12.2 km/h 68.5% 0.0 mm 387 W/m2
13:14 20.4 °C 14.3 °C 1010.8 hPa South 6.7 km/h 16.3 km/h 68.3% 0.0 mm 390 W/m2
13:19 20.3 °C 14.5 °C 1010.5 hPa South 6.5 km/h 20.1 km/h 69.4% 0.0 mm 390 W/m2
13:24 20.2 °C 14.5 °C 1010.5 hPa SSE 4.5 km/h 20.1 km/h 70% 0.0 mm 389 W/m2
13:29 19.9 °C 14.3 °C 1010.5 hPa South 4 km/h 16.3 km/h 70.1% 0.0 mm 391 W/m2
13:34 19.9 °C 14.4 °C 1010.5 hPa SSE 5.9 km/h 12.2 km/h 70.4% 0.0 mm 391 W/m2
13:39 20 °C 14.3 °C 1010.5 hPa South 4 km/h 12.2 km/h 69.7% 0.0 mm 397 W/m2
13:44 20 °C 14 °C 1010.2 hPa SSE 4.1 km/h 16.3 km/h 68.7% 0.0 mm 387 W/m2
13:49 20 °C 13.9 °C 1010.2 hPa South 1.5 km/h 12.2 km/h 67.8% 0.0 mm 385 W/m2
13:54 20 °C 13.8 °C 1010.2 hPa South 2.9 km/h 12.2 km/h 67.3% 0.0 mm 385 W/m2
13:59 20.1 °C 13.6 °C 1010.2 hPa SSE 0.7 km/h 7.9 km/h 66.3% 0.0 mm 377 W/m2
14:04 20.3 °C 14 °C 1010.2 hPa South 2.2 km/h 12.2 km/h 67.3% 0.0 mm 317 W/m2
14:09 20.4 °C 13.8 °C 1010.2 hPa SSW 1.1 km/h 7.9 km/h 66% 0.0 mm 364 W/m2
14:14 20.5 °C 14.1 °C 1010.2 hPa SSE 2.4 km/h 16.3 km/h 66.8% 0.0 mm 363 W/m2
14:19 20.5 °C 14.1 °C 1010.2 hPa SSE 0.9 km/h 7.9 km/h 66.7% 0.0 mm 361 W/m2
14:24 20.5 °C 14 °C 1010.2 hPa South 1.6 km/h 7.9 km/h 66.2% 0.0 mm 355 W/m2
14:29 20.5 °C 13.7 °C 1010.2 hPa SE 1.2 km/h 7.9 km/h 64.9% 0.0 mm 353 W/m2
14:34 20.5 °C 13.7 °C 1010.2 hPa SE 0.7 km/h 7.9 km/h 64.9% 0.0 mm 347 W/m2
14:39 20.5 °C 13.6 °C 1010.2 hPa Calm   7.9 km/h 64.6% 0.0 mm 341 W/m2
14:44 20.7 °C 13.3 °C 1010.2 hPa Calm     62.9% 0.0 mm 338 W/m2
14:49 21.3 °C 13.6 °C 1010.2 hPa SE 0.2 km/h 7.9 km/h 61.4% 0.0 mm 328 W/m2
14:54 21.2 °C 13.8 °C 1010.2 hPa South 1 km/h 7.9 km/h 62.6% 0.0 mm 321 W/m2
14:59 21.1 °C 13.8 °C 1010.2 hPa Calm   7.9 km/h 63.1% 0.0 mm 311 W/m2
15:04 21 °C 13.7 °C 1010.2 hPa Calm     63% 0.0 mm 303 W/m2
15:09 20.7 °C 13.4 °C 1010.2 hPa Calm     63% 0.0 mm 281 W/m2
15:14 20.8 °C 13.8 °C 1010.2 hPa Calm   4 km/h 64.3% 0.0 mm 280 W/m2
15:19 20.7 °C 13.8 °C 1010.2 hPa South 0.8 km/h 7.9 km/h 64.6% 0.0 mm 275 W/m2
15:24 20.7 °C 13.6 °C 1010.2 hPa Calm   7.9 km/h 64% 0.0 mm 268 W/m2
15:29 20.5 °C 13.4 °C 1010.2 hPa South 0.6 km/h 7.9 km/h 63.8% 0.0 mm 244 W/m2
15:34 20.5 °C 13.6 °C 1010.2 hPa Calm   7.9 km/h 64.3% 0.0 mm 245 W/m2
15:39 20.4 °C 13.5 °C 1010.2 hPa Calm     64.4% 0.0 mm 244 W/m2
15:44 20.4 °C 13.6 °C 1009.8 hPa Calm     64.9% 0.0 mm 241 W/m2
15:49 20.4 °C 13.6 °C 1010.2 hPa Calm     65% 0.0 mm 227 W/m2
15:54 20.3 °C 13.8 °C 1009.8 hPa Calm     66.1% 0.0 mm 88 W/m2
15:59 20.2 °C 13.9 °C 1010.2 hPa Calm     67% 0.0 mm 84 W/m2
16:04 20.1 °C 14 °C 1010.2 hPa Calm     68.2% 0.0 mm 80 W/m2
16:09 18.8 °C 13 °C 1010.2 hPa Calm     69% 0.0 mm 76 W/m2
16:14 18.8 °C 13.1 °C 1009.8 hPa Calm   4 km/h 69.7% 0.0 mm 72 W/m2
16:19 18.7 °C 13.2 °C 1010.2 hPa Calm     70.6% 0.0 mm 67 W/m2
16:24 18.6 °C 13.5 °C 1009.8 hPa Calm     72.3% 0.0 mm 63 W/m2
16:29 17.8 °C 12.9 °C 1010.2 hPa Calm     72.7% 0.0 mm 59 W/m2
16:34 17.8 °C 12.9 °C 1010.2 hPa Calm     73% 0.0 mm 55 W/m2
16:39 17.7 °C 13.1 °C 1010.2 hPa Calm     74.2% 0.0 mm 50 W/m2
16:44 17.7 °C 13.3 °C 1009.8 hPa Calm     75.6% 0.0 mm 46 W/m2
16:49 17 °C 12.8 °C 1010.2 hPa Calm     76.2% 0.0 mm 41 W/m2
16:54 17 °C 12.7 °C 1010.2 hPa Calm     76% 0.0 mm 36 W/m2
16:59 17 °C 12.3 °C 1010.2 hPa Calm     74.3% 0.0 mm 32 W/m2
17:04 16.9 °C 12.7 °C 1010.2 hPa Calm     76.3% 0.0 mm 27 W/m2
17:09 16.4 °C 12.4 °C 1010.2 hPa Calm     76.8% 0.0 mm 22 W/m2
17:14 16.4 °C 12.5 °C 1010.2 hPa Calm     77.6% 0.0 mm 17 W/m2
17:19 16.4 °C 12.3 °C 1010.2 hPa Calm     76.6% 0.0 mm 10 W/m2
17:24 16.3 °C 12.1 °C 1010.2 hPa WSW 0.1 km/h 4 km/h 75.6% 0.0 mm 6 W/m2
17:29 16.3 °C 12.1 °C 1010.2 hPa Calm   4 km/h 75.8% 0.0 mm 3 W/m2
17:34 16.2 °C 12.3 °C 1010.2 hPa WSW 0.4 km/h 4 km/h 77.3% 0.0 mm 0 W/m2
17:39 16.2 °C 12.2 °C 1010.2 hPa Calm   4 km/h 76.9% 0.0 mm 0 W/m2
17:44 16.1 °C 11.9 °C 1010.2 hPa Calm     76.2% 0.0 mm 0 W/m2
17:49 15.9 °C 11.9 °C 1010.2 hPa Calm     77% 0.0 mm 0 W/m2
17:54 15.9 °C 11.9 °C 1010.2 hPa Calm     77% 0.0 mm 0 W/m2
17:59 15.9 °C 11.7 °C 1010.2 hPa Calm     76.1% 0.0 mm 0 W/m2
18:04 16 °C 11.7 °C 1010.5 hPa Calm     75.4% 0.0 mm 0 W/m2
18:09 15.8 °C 11.8 °C 1010.5 hPa Calm     76.8% 0.0 mm 0 W/m2
18:14 15.8 °C 11.7 °C 1010.5 hPa Calm     76.4% 0.0 mm 0 W/m2
18:19 15.8 °C 11.8 °C 1010.5 hPa Calm     77.1% 0.0 mm 0 W/m2
18:24 15.8 °C 11.8 °C 1010.8 hPa Calm   4 km/h 77.1% 0.0 mm 0 W/m2
18:29 15.7 °C 11.8 °C 1010.8 hPa Calm   4 km/h 77.1% 0.0 mm 0 W/m2
18:34 15.7 °C 11.9 °C 1010.8 hPa Calm     77.9% 0.0 mm 0 W/m2
18:39 15.7 °C 11.9 °C 1010.8 hPa Calm     78.4% 0.0 mm 0 W/m2
18:44 15.6 °C 11.8 °C 1010.8 hPa Calm     78% 0.0 mm 0 W/m2
18:49 15.7 °C 11.7 °C 1010.8 hPa Calm     77.1% 0.0 mm 0 W/m2
18:54 15.6 °C 11.8 °C 1010.8 hPa Calm     77.9% 0.0 mm 0 W/m2
18:59 15.6 °C 11.6 °C 1010.8 hPa Calm     77% 0.0 mm 0 W/m2
19:04 15.6 °C 11.6 °C 1010.8 hPa Calm     77% 0.0 mm 0 W/m2
19:09 15.7 °C 11.5 °C 1010.8 hPa Calm     76.3% 0.0 mm 0 W/m2
19:14 15.7 °C 11.5 °C 1010.8 hPa Calm     76% 0.0 mm 0 W/m2
19:19 15.6 °C 11.5 °C 1011.2 hPa Calm     76.6% 0.0 mm 0 W/m2
19:24 15.6 °C 11.3 °C 1010.8 hPa Calm     75.7% 0.0 mm 0 W/m2
19:29 15.9 °C 11.4 °C 1011.2 hPa Calm     74.6% 0.0 mm 0 W/m2
19:34 15.9 °C 11.5 °C 1010.8 hPa Calm     74.8% 0.0 mm 0 W/m2
19:39 15.9 °C 11.6 °C 1010.8 hPa Calm     75.3% 0.0 mm 0 W/m2
19:44 15.9 °C 11.4 °C 1011.2 hPa Calm     74.3% 0.0 mm 0 W/m2
19:49 16 °C 11.4 °C 1011.2 hPa Calm     74% 0.0 mm 0 W/m2
19:54 16 °C 11.4 °C 1011.2 hPa Calm     74% 0.0 mm 0 W/m2
19:59 16 °C 11.6 °C 1011.2 hPa Calm     75.2% 0.0 mm 0 W/m2
20:04 15.9 °C 11.8 °C 1011.2 hPa Calm     76.7% 0.0 mm 0 W/m2
20:09 15.4 °C 11.5 °C 1010.8 hPa Calm     77.4% 0.0 mm 0 W/m2
20:14 15.2 °C 11.4 °C 1011.2 hPa Calm     77.9% 0.0 mm 0 W/m2
20:19 15.2 °C 11.2 °C 1010.8 hPa West 1.3 km/h 7.9 km/h 76.7% 0.0 mm 0 W/m2
20:24 15.3 °C 11 °C 1010.8 hPa Calm   4 km/h 75.3% 0.0 mm 0 W/m2
20:29 15.7 °C 11.5 °C 1011.2 hPa Calm     75.9% 0.0 mm 0 W/m2
20:34 15.9 °C 11.6 °C 1011.2 hPa Calm     75.6% 0.0 mm 0 W/m2
20:39 15.9 °C 11.6 °C 1011.2 hPa Calm     75.4% 0.0 mm 0 W/m2
20:44 15.8 °C 11.7 °C 1011.2 hPa Calm     76.7% 0.0 mm 0 W/m2
20:49 15.5 °C 11.4 °C 1011.2 hPa Calm     76.6% 0.0 mm 0 W/m2
20:54 15.3 °C 11.3 °C 1011.2 hPa Calm     77% 0.0 mm 0 W/m2
20:59 15.3 °C 11.4 °C 1011.2 hPa Calm     77.5% 0.0 mm 0 W/m2
21:04 15.3 °C 11.5 °C 1011.2 hPa Calm     78% 0.0 mm 0 W/m2
21:09 15.4 °C 11.4 °C 1011.5 hPa Calm     77.2% 0.0 mm 0 W/m2
21:14 15.4 °C 11.5 °C 1011.5 hPa Calm     77.4% 0.0 mm 0 W/m2
21:19 15.3 °C 11.6 °C 1011.5 hPa Calm     78.4% 0.0 mm 0 W/m2
21:24 15.3 °C 11.6 °C 1011.5 hPa West 0.3 km/h 4 km/h 78.3% 0.0 mm 0 W/m2
21:29 14.9 °C 11.4 °C 1011.5 hPa Calm     79.3% 0.0 mm 0 W/m2
21:34 14.7 °C 10.9 °C 1011.5 hPa Calm     78.2% 0.0 mm 0 W/m2
21:39 14.8 °C 11.1 °C 1011.9 hPa Calm     78.7% 0.0 mm 0 W/m2
21:44 14.8 °C 11.1 °C 1011.9 hPa Calm     78.6% 0.0 mm 0 W/m2
21:49 14.8 °C 11.2 °C 1011.9 hPa Calm     78.8% 0.0 mm 0 W/m2
21:54 14.8 °C 11.1 °C 1011.5 hPa Calm     78.3% 0.0 mm 0 W/m2
21:59 14.8 °C 10.9 °C 1011.5 hPa SE 0.4 km/h 4 km/h 77.7% 0.0 mm 0 W/m2
22:04 14.9 °C 11 °C 1011.5 hPa South 0.6 km/h 7.9 km/h 77.3% 0.0 mm 0 W/m2
22:09 15.1 °C 11.1 °C 1011.5 hPa South 1.8 km/h 7.9 km/h 77% 0.0 mm 0 W/m2
22:14 15.2 °C 11.2 °C 1011.5 hPa SSW 0.4 km/h 7.9 km/h 77% 0.0 mm 0 W/m2
22:19 15.2 °C 11.2 °C 1011.5 hPa South 0.6 km/h 7.9 km/h 76.9% 0.0 mm 0 W/m2
22:24 15.2 °C 11.1 °C 1011.5 hPa SSW 1.1 km/h 12.2 km/h 76.6% 0.0 mm 0 W/m2
22:29 15.2 °C 11 °C 1011.5 hPa South 0.9 km/h 12.2 km/h 75.9% 0.0 mm 0 W/m2
22:34 15.2 °C 11 °C 1011.5 hPa South 1.3 km/h 7.9 km/h 76% 0.0 mm 0 W/m2
22:39 15.2 °C 11.1 °C 1011.5 hPa South 0.2 km/h 7.9 km/h 76.4% 0.0 mm 0 W/m2
22:44 15.2 °C 11.1 °C 1011.5 hPa Calm     76.4% 0.0 mm 0 W/m2
22:49 14.8 °C 10.8 °C 1011.5 hPa Calm     77% 0.0 mm 0 W/m2
22:54 14.4 °C 10.4 °C 1011.5 hPa Calm     77.2% 0.0 mm 0 W/m2
22:59 14.4 °C 11 °C 1011.5 hPa Calm     80% 0.0 mm 0 W/m2
23:04 14.3 °C 11.3 °C 1011.9 hPa Calm     82.2% 0.0 mm 0 W/m2
23:09 14.1 °C 11.3 °C 1011.5 hPa Calm     83% 0.0 mm 0 W/m2
23:14 13.7 °C 11 °C 1011.9 hPa Calm     83.7% 0.0 mm 0 W/m2
23:19 13.7 °C 10.9 °C 1011.9 hPa Calm     83.1% 0.0 mm 0 W/m2
23:24 13.7 °C 11 °C 1011.9 hPa Calm     84% 0.0 mm 0 W/m2
23:29 13.5 °C 10.8 °C 1011.5 hPa Calm     84% 0.0 mm 0 W/m2
23:34 13.3 °C 10.6 °C 1011.9 hPa Calm     83.5% 0.0 mm 0 W/m2
23:39 13.3 °C 10.5 °C 1011.5 hPa Calm     83.1% 0.0 mm 0 W/m2
23:44 13.4 °C 10.6 °C 1011.9 hPa Calm     83.2% 0.0 mm 0 W/m2
23:49 13.5 °C 10.6 °C 1011.5 hPa Calm     82.1% 0.0 mm 0 W/m2
23:54 13.8 °C 11.1 °C 1011.9 hPa Calm     84% 0.0 mm 0 W/m2
23:59 13.7 °C 11.2 °C 1011.9 hPa Calm     85% 0.0 mm 0 W/m2
Juneau County Weather
Compliments of Weather Underground - 2 mb